This is the latest recevied weather packets stored in our database for station/object KE9DBJ. If no packets are shown the sender has not sent any weather packets the latest 10 day(s).
| Time | Temp. | Humidity | Pressure | Rain* | Wind** | Luminosity | Snow |
|---|---|---|---|---|---|---|---|
| 1777535723 | 6.11° C | 98% | 1014.7 hPa | 0 mm | - | - | - |
| 1777535115 | 6.11° C | 99% | 1014.7 hPa | 0 mm | - | - | - |
| 1777530359 | 7.22° C | 94% | 1015 hPa | 0 mm | - | - | - |
| 1777529723 | 7.78° C | 91% | 1015 hPa | 0 mm | - | - | - |
| 1777528533 | 8.33° C | 87% | 1015.2 hPa | 0 mm | - | - | - |
| 1777523717 | 9.44° C | 83% | 1014.7 hPa | 0 mm | - | - | - |
| 1777520128 | 10.56° C | 74% | 1014.2 hPa | 0 mm | - | - | - |
| 1777519515 | 11.11° C | 73% | 1014.2 hPa | 0 mm | - | - | - |
| 1777515331 | 12.22° C | 73% | 1013.5 hPa | 0 mm | - | - | - |
| 1777509921 | 13.89° C | 67% | 1012 hPa | 0 mm | - | - | - |
| 1777504522 | 17.78° C | 53% | 1011.5 hPa | 0 mm | - | - | - |
| 1777499731 | 18.33° C | 55% | 1010.9 hPa | 0 mm | - | - | - |
| 1777493130 | 19.44° C | 60% | 1010.8 hPa | 0 mm | - | - | - |
| 1777491922 | 19.44° C | 62% | 1010.9 hPa | 0 mm | - | - | - |
| 1777488929 | 18.89° C | 67% | 1010.7 hPa | 0 mm | - | - | - |
| 1777485917 | 18.33° C | 76% | 1010.7 hPa | 0 mm | - | - | - |
| 1777481733 | 16.11° C | 85% | 1010.7 hPa | 0 mm | - | - | - |
| 1777478126 | 15° C | 90% | 1010.5 hPa | 0.25 mm | - | - | - |
| 1777472715 | 15.56° C | 93% | 1009.7 hPa | 1.02 mm | - | - | - |
| 1777472140 | 15° C | 94% | 1009.8 hPa | 1.27 mm | - | - | - |
| 1777466728 | 15° C | 98% | 1010 hPa | 0.51 mm | - | - | - |
| 1777462526 | 15° C | 99% | 1010.2 hPa | 0 mm | - | - | - |
| 1777460127 | 15° C | 99% | 1010.1 hPa | 0 mm | - | - | - |
| 1777441516 | 16.11° C | 95% | 1011.9 hPa | 0 mm | - | - | - |
| 1777440359 | 16.11° C | 94% | 1011.9 hPa | 0 mm | - | - | - |
* Rain latest hour (hover to see other rain measurements)
** Current wind speed in m/s (hover to see current wind gust speed)